Orange City, Florida
Current Conditions -  °F | °C
As of 10:35 PM on Saturday 22 Nov 2014 (Local Time) from KDED Reporting Station
Overcast Overcast  
Wind Chill: 72°   Ceiling: 3800
Heat Index: 72°   Visibility: 10mi
Dew Point: 64°   Wind: 12mph
Humidity: 78%   Direction: 110°ESE
Pressure: 30.15"   Gusts: 17mph
Location:  28.95°N, 81.3°W
Report Text: KDED 230335Z AUTO 11010G15KT 10SM OVC038 22/18 A3015 RMK AO1
Loading
Personal Weather Stations






























Interactive Weather Map New forecast layout! Learn more

10-Day Weather Forecast

Advertisements
Track Severe Weather on mobile